sensor_id;sensor_type;location;lat;lon;timestamp;P1;durP1;ratioP1;P2;durP2;ratioP2
19778;SDS011;10049;59.306;18.090;2022-10-03T00:02:13;10.68;;;7.32;;
19778;SDS011;10049;59.306;18.090;2022-10-03T00:04:48;11.55;;;7.85;;
19778;SDS011;10049;59.306;18.090;2022-10-03T00:07:29;13.32;;;8.13;;
19778;SDS011;10049;59.306;18.090;2022-10-03T00:10:04;12.27;;;8.20;;
19778;SDS011;10049;59.306;18.090;2022-10-03T00:12:44;10.27;;;7.22;;
19778;SDS011;10049;59.306;18.090;2022-10-03T00:15:17;12.00;;;7.10;;
19778;SDS011;10049;59.306;18.090;2022-10-03T00:17:49;12.35;;;8.32;;
19778;SDS011;10049;59.306;18.090;2022-10-03T00:20:29;9.77;;;7.57;;
19778;SDS011;10049;59.306;18.090;2022-10-03T00:23:01;10.20;;;7.18;;
19778;SDS011;10049;59.306;18.090;2022-10-03T00:25:31;13.30;;;7.57;;
19778;SDS011;10049;59.306;18.090;2022-10-03T00:28:06;10.75;;;7.53;;
19778;SDS011;10049;59.306;18.090;2022-10-03T00:33:23;10.45;;;7.75;;
19778;SDS011;10049;59.306;18.090;2022-10-03T00:35:59;15.48;;;8.23;;
19778;SDS011;10049;59.306;18.090;2022-10-03T00:41:18;13.30;;;8.65;;
19778;SDS011;10049;59.306;18.090;2022-10-03T00:49:35;16.00;;;8.05;;
19778;SDS011;10049;59.306;18.090;2022-10-03T00:55:00;13.68;;;7.13;;
19778;SDS011;10049;59.306;18.090;2022-10-03T00:57:40;9.73;;;6.97;;
19778;SDS011;10049;59.306;18.090;2022-10-03T01:00:13;10.20;;;7.10;;
19778;SDS011;10049;59.306;18.090;2022-10-03T01:02:45;16.48;;;7.15;;
19778;SDS011;10049;59.306;18.090;2022-10-03T01:05:15;12.13;;;7.60;;
19778;SDS011;10049;59.306;18.090;2022-10-03T01:07:53;12.20;;;7.15;;
19778;SDS011;10049;59.306;18.090;2022-10-03T01:10:25;10.75;;;6.90;;
19778;SDS011;10049;59.306;18.090;2022-10-03T01:13:00;11.80;;;7.60;;
19778;SDS011;10049;59.306;18.090;2022-10-03T01:15:36;10.43;;;7.03;;
19778;SDS011;10049;59.306;18.090;2022-10-03T01:18:09;9.35;;;6.55;;
19778;SDS011;10049;59.306;18.090;2022-10-03T01:20:44;12.07;;;7.00;;
19778;SDS011;10049;59.306;18.090;2022-10-03T01:29:01;9.90;;;7.03;;
19778;SDS011;10049;59.306;18.090;2022-10-03T01:31:50;10.35;;;6.82;;
19778;SDS011;10049;59.306;18.090;2022-10-03T01:34:22;12.02;;;7.40;;
19778;SDS011;10049;59.306;18.090;2022-10-03T01:36:55;10.45;;;6.50;;
19778;SDS011;10049;59.306;18.090;2022-10-03T01:39:27;10.93;;;6.82;;
19778;SDS011;10049;59.306;18.090;2022-10-03T01:41:56;12.32;;;6.68;;
19778;SDS011;10049;59.306;18.090;2022-10-03T01:44:28;13.88;;;7.18;;
19778;SDS011;10049;59.306;18.090;2022-10-03T01:46:57;11.63;;;6.90;;
19778;SDS011;10049;59.306;18.090;2022-10-03T01:49:33;10.35;;;7.38;;
19778;SDS011;10049;59.306;18.090;2022-10-03T01:52:05;11.02;;;6.88;;
19778;SDS011;10049;59.306;18.090;2022-10-03T01:54:38;15.52;;;7.97;;
19778;SDS011;10049;59.306;18.090;2022-10-03T01:57:09;15.73;;;7.85;;
19778;SDS011;10049;59.306;18.090;2022-10-03T01:59:45;16.83;;;8.88;;
19778;SDS011;10049;59.306;18.090;2022-10-03T02:02:18;16.73;;;8.27;;
19778;SDS011;10049;59.306;18.090;2022-10-03T02:04:50;16.50;;;7.53;;
19778;SDS011;10049;59.306;18.090;2022-10-03T02:07:19;16.85;;;8.38;;
19778;SDS011;10049;59.306;18.090;2022-10-03T02:09:53;16.05;;;8.90;;
19778;SDS011;10049;59.306;18.090;2022-10-03T02:12:25;17.35;;;8.68;;
19778;SDS011;10049;59.306;18.090;2022-10-03T02:14:56;31.70;;;8.93;;
19778;SDS011;10049;59.306;18.090;2022-10-03T02:17:29;38.25;;;10.80;;
19778;SDS011;10049;59.306;18.090;2022-10-03T02:20:04;21.38;;;8.65;;
19778;SDS011;10049;59.306;18.090;2022-10-03T02:22:34;14.95;;;8.18;;
19778;SDS011;10049;59.306;18.090;2022-10-03T02:25:08;17.35;;;8.80;;
19778;SDS011;10049;59.306;18.090;2022-10-03T02:27:46;14.65;;;7.47;;
19778;SDS011;10049;59.306;18.090;2022-10-03T02:30:20;14.43;;;7.82;;
19778;SDS011;10049;59.306;18.090;2022-10-03T02:33:13;30.40;;;8.82;;
19778;SDS011;10049;59.306;18.090;2022-10-03T02:38:38;14.27;;;7.97;;
19778;SDS011;10049;59.306;18.090;2022-10-03T02:41:11;16.58;;;8.38;;
19778;SDS011;10049;59.306;18.090;2022-10-03T02:49:21;13.10;;;7.70;;
19778;SDS011;10049;59.306;18.090;2022-10-03T02:52:03;13.70;;;8.20;;
19778;SDS011;10049;59.306;18.090;2022-10-03T02:54:56;14.70;;;7.80;;
19778;SDS011;10049;59.306;18.090;2022-10-03T03:00:27;14.77;;;7.95;;
19778;SDS011;10049;59.306;18.090;2022-10-03T03:03:05;29.48;;;9.25;;
19778;SDS011;10049;59.306;18.090;2022-10-03T03:11:33;19.10;;;8.02;;
19778;SDS011;10049;59.306;18.090;2022-10-03T03:14:19;18.38;;;8.63;;
19778;SDS011;10049;59.306;18.090;2022-10-03T03:16:53;21.23;;;9.63;;
19778;SDS011;10049;59.306;18.090;2022-10-03T03:19:27;27.90;;;9.82;;
19778;SDS011;10049;59.306;18.090;2022-10-03T03:21:59;22.20;;;9.38;;
19778;SDS011;10049;59.306;18.090;2022-10-03T03:24:35;20.13;;;9.02;;
19778;SDS011;10049;59.306;18.090;2022-10-03T03:27:19;17.92;;;8.93;;
19778;SDS011;10049;59.306;18.090;2022-10-03T03:29:49;15.45;;;8.07;;
19778;SDS011;10049;59.306;18.090;2022-10-03T03:32:23;16.35;;;7.82;;
19778;SDS011;10049;59.306;18.090;2022-10-03T03:34:55;12.95;;;7.85;;
19778;SDS011;10049;59.306;18.090;2022-10-03T03:37:26;19.52;;;7.88;;
19778;SDS011;10049;59.306;18.090;2022-10-03T03:40:01;12.13;;;7.30;;
19778;SDS011;10049;59.306;18.090;2022-10-03T03:42:39;14.93;;;7.40;;
19778;SDS011;10049;59.306;18.090;2022-10-03T03:45:20;12.55;;;6.93;;
19778;SDS011;10049;59.306;18.090;2022-10-03T03:47:59;11.32;;;6.93;;
19778;SDS011;10049;59.306;18.090;2022-10-03T03:50:32;12.75;;;6.55;;
19778;SDS011;10049;59.306;18.090;2022-10-03T03:58:42;10.15;;;7.03;;
19778;SDS011;10049;59.306;18.090;2022-10-03T04:01:28;15.32;;;6.60;;
19778;SDS011;10049;59.306;18.090;2022-10-03T04:04:04;9.70;;;6.30;;
19778;SDS011;10049;59.306;18.090;2022-10-03T04:06:39;11.40;;;6.38;;
19778;SDS011;10049;59.306;18.090;2022-10-03T04:09:17;12.98;;;6.50;;
19778;SDS011;10049;59.306;18.090;2022-10-03T04:11:53;9.57;;;5.70;;
19778;SDS011;10049;59.306;18.090;2022-10-03T04:17:29;16.23;;;7.15;;
19778;SDS011;10049;59.306;18.090;2022-10-03T04:20:19;10.02;;;6.03;;
19778;SDS011;10049;59.306;18.090;2022-10-03T04:22:55;7.35;;;5.28;;
19778;SDS011;10049;59.306;18.090;2022-10-03T04:25:35;9.70;;;6.07;;
19778;SDS011;10049;59.306;18.090;2022-10-03T04:28:17;10.68;;;5.88;;
19778;SDS011;10049;59.306;18.090;2022-10-03T04:30:53;10.52;;;6.43;;
19778;SDS011;10049;59.306;18.090;2022-10-03T04:33:29;10.13;;;5.95;;
19778;SDS011;10049;59.306;18.090;2022-10-03T04:38:42;10.98;;;6.45;;
19778;SDS011;10049;59.306;18.090;2022-10-03T04:41:15;13.65;;;7.35;;
19778;SDS011;10049;59.306;18.090;2022-10-03T04:43:51;14.70;;;7.82;;
19778;SDS011;10049;59.306;18.090;2022-10-03T04:46:24;16.50;;;7.10;;
19778;SDS011;10049;59.306;18.090;2022-10-03T04:48:57;9.10;;;6.43;;
19778;SDS011;10049;59.306;18.090;2022-10-03T04:51:30;14.73;;;7.45;;
19778;SDS011;10049;59.306;18.090;2022-10-03T04:54:00;14.15;;;7.60;;
19778;SDS011;10049;59.306;18.090;2022-10-03T04:56:36;14.23;;;7.22;;
19778;SDS011;10049;59.306;18.090;2022-10-03T04:59:09;17.63;;;8.10;;
19778;SDS011;10049;59.306;18.090;2022-10-03T05:01:42;15.27;;;7.57;;
19778;SDS011;10049;59.306;18.090;2022-10-03T05:04:18;12.75;;;7.18;;
19778;SDS011;10049;59.306;18.090;2022-10-03T05:06:54;12.27;;;6.93;;
19778;SDS011;10049;59.306;18.090;2022-10-03T05:09:28;13.52;;;6.95;;
19778;SDS011;10049;59.306;18.090;2022-10-03T05:12:01;12.23;;;7.30;;
19778;SDS011;10049;59.306;18.090;2022-10-03T05:14:37;13.95;;;7.47;;
19778;SDS011;10049;59.306;18.090;2022-10-03T05:17:13;20.23;;;8.00;;
19778;SDS011;10049;59.306;18.090;2022-10-03T05:19:48;15.52;;;7.35;;
19778;SDS011;10049;59.306;18.090;2022-10-03T05:22:21;16.15;;;7.90;;
19778;SDS011;10049;59.306;18.090;2022-10-03T05:24:55;15.00;;;8.27;;
19778;SDS011;10049;59.306;18.090;2022-10-03T05:27:25;15.93;;;8.70;;
19778;SDS011;10049;59.306;18.090;2022-10-03T05:29:58;15.30;;;8.35;;
19778;SDS011;10049;59.306;18.090;2022-10-03T05:32:32;14.10;;;7.75;;
19778;SDS011;10049;59.306;18.090;2022-10-03T05:35:11;16.40;;;7.80;;
19778;SDS011;10049;59.306;18.090;2022-10-03T05:37:45;13.98;;;7.60;;
19778;SDS011;10049;59.306;18.090;2022-10-03T05:40:15;13.48;;;7.07;;
19778;SDS011;10049;59.306;18.090;2022-10-03T05:43:01;17.70;;;7.63;;
19778;SDS011;10049;59.306;18.090;2022-10-03T05:45:31;11.30;;;7.30;;
19778;SDS011;10049;59.306;18.090;2022-10-03T05:48:12;10.35;;;6.97;;
19778;SDS011;10049;59.306;18.090;2022-10-03T05:50:48;9.85;;;7.00;;
19778;SDS011;10049;59.306;18.090;2022-10-03T05:53:33;12.77;;;7.15;;
19778;SDS011;10049;59.306;18.090;2022-10-03T05:56:06;10.85;;;7.03;;
19778;SDS011;10049;59.306;18.090;2022-10-03T05:58:42;7.43;;;6.00;;
19778;SDS011;10049;59.306;18.090;2022-10-03T06:03:59;8.00;;;5.35;;
19778;SDS011;10049;59.306;18.090;2022-10-03T06:06:32;5.57;;;4.65;;
19778;SDS011;10049;59.306;18.090;2022-10-03T06:09:06;7.25;;;4.50;;
19778;SDS011;10049;59.306;18.090;2022-10-03T06:14:31;7.35;;;4.03;;
19778;SDS011;10049;59.306;18.090;2022-10-03T06:19:46;4.07;;;3.58;;
19778;SDS011;10049;59.306;18.090;2022-10-03T06:22:32;4.50;;;3.53;;
19778;SDS011;10049;59.306;18.090;2022-10-03T06:25:11;4.07;;;3.28;;
19778;SDS011;10049;59.306;18.090;2022-10-03T06:30:43;2.97;;;2.63;;
19778;SDS011;10049;59.306;18.090;2022-10-03T06:33:29;7.85;;;3.20;;
19778;SDS011;10049;59.306;18.090;2022-10-03T06:44:27;4.53;;;2.78;;
19778;SDS011;10049;59.306;18.090;2022-10-03T06:47:09;3.00;;;2.67;;
19778;SDS011;10049;59.306;18.090;2022-10-03T06:52:26;3.90;;;2.78;;
19778;SDS011;10049;59.306;18.090;2022-10-03T06:55:04;2.95;;;2.50;;
19778;SDS011;10049;59.306;18.090;2022-10-03T07:03:37;3.33;;;2.58;;
19778;SDS011;10049;59.306;18.090;2022-10-03T07:06:10;4.10;;;2.38;;
19778;SDS011;10049;59.306;18.090;2022-10-03T07:11:32;3.92;;;2.58;;
19778;SDS011;10049;59.306;18.090;2022-10-03T07:25:28;2.53;;;2.22;;
19778;SDS011;10049;59.306;18.090;2022-10-03T07:28:00;3.65;;;2.50;;
19778;SDS011;10049;59.306;18.090;2022-10-03T07:30:33;2.95;;;2.47;;
19778;SDS011;10049;59.306;18.090;2022-10-03T07:33:24;8.68;;;2.75;;
19778;SDS011;10049;59.306;18.090;2022-10-03T07:50:18;2.78;;;2.50;;
19778;SDS011;10049;59.306;18.090;2022-10-03T07:52:55;5.78;;;2.40;;
19778;SDS011;10049;59.306;18.090;2022-10-03T07:55:37;5.20;;;2.97;;
19778;SDS011;10049;59.306;18.090;2022-10-03T07:58:13;4.03;;;2.80;;
19778;SDS011;10049;59.306;18.090;2022-10-03T08:00:49;2.67;;;2.45;;
19778;SDS011;10049;59.306;18.090;2022-10-03T08:06:12;2.83;;;2.53;;
19778;SDS011;10049;59.306;18.090;2022-10-03T08:08:50;2.50;;;2.30;;
19778;SDS011;10049;59.306;18.090;2022-10-03T08:11:23;2.90;;;2.40;;
19778;SDS011;10049;59.306;18.090;2022-10-03T08:14:05;2.65;;;2.40;;
19778;SDS011;10049;59.306;18.090;2022-10-03T08:16:52;2.70;;;2.50;;
19778;SDS011;10049;59.306;18.090;2022-10-03T08:19:27;3.63;;;2.70;;
19778;SDS011;10049;59.306;18.090;2022-10-03T08:22:04;3.55;;;2.10;;
19778;SDS011;10049;59.306;18.090;2022-10-03T08:24:36;2.38;;;2.17;;
19778;SDS011;10049;59.306;18.090;2022-10-03T08:27:21;2.42;;;2.22;;
19778;SDS011;10049;59.306;18.090;2022-10-03T08:30:01;2.13;;;1.95;;
19778;SDS011;10049;59.306;18.090;2022-10-03T08:43:37;1.88;;;1.70;;
19778;SDS011;10049;59.306;18.090;2022-10-03T08:46:25;4.57;;;2.00;;
19778;SDS011;10049;59.306;18.090;2022-10-03T08:49:00;3.40;;;2.05;;
19778;SDS011;10049;59.306;18.090;2022-10-03T08:54:31;1.90;;;1.70;;
19778;SDS011;10049;59.306;18.090;2022-10-03T08:57:09;2.20;;;2.00;;
19778;SDS011;10049;59.306;18.090;2022-10-03T09:08:38;3.08;;;2.40;;
19778;SDS011;10049;59.306;18.090;2022-10-03T09:16:55;3.47;;;3.17;;
19778;SDS011;10049;59.306;18.090;2022-10-03T09:19:32;4.18;;;3.30;;
19778;SDS011;10049;59.306;18.090;2022-10-03T09:25:11;4.70;;;3.03;;
19778;SDS011;10049;59.306;18.090;2022-10-03T09:30:30;3.13;;;2.83;;
19778;SDS011;10049;59.306;18.090;2022-10-03T09:33:12;5.47;;;3.08;;
19778;SDS011;10049;59.306;18.090;2022-10-03T09:35:53;3.58;;;3.28;;
19778;SDS011;10049;59.306;18.090;2022-10-03T09:38:30;4.40;;;3.20;;
19778;SDS011;10049;59.306;18.090;2022-10-03T09:49:58;3.28;;;2.97;;
19778;SDS011;10049;59.306;18.090;2022-10-03T09:52:41;6.88;;;3.30;;
19778;SDS011;10049;59.306;18.090;2022-10-03T09:55:16;3.60;;;3.10;;
19778;SDS011;10049;59.306;18.090;2022-10-03T09:57:59;3.47;;;2.92;;
19778;SDS011;10049;59.306;18.090;2022-10-03T10:00:30;3.40;;;3.10;;
19778;SDS011;10049;59.306;18.090;2022-10-03T10:17:03;3.85;;;3.30;;
19778;SDS011;10049;59.306;18.090;2022-10-03T10:19:39;3.53;;;3.22;;
19778;SDS011;10049;59.306;18.090;2022-10-03T10:22:16;4.53;;;3.10;;
19778;SDS011;10049;59.306;18.090;2022-10-03T10:27:37;4.00;;;3.42;;
19778;SDS011;10049;59.306;18.090;2022-10-03T10:30:19;3.88;;;3.38;;
19778;SDS011;10049;59.306;18.090;2022-10-03T10:35:47;3.65;;;3.10;;
19778;SDS011;10049;59.306;18.090;2022-10-03T10:38:22;3.47;;;3.17;;
19778;SDS011;10049;59.306;18.090;2022-10-03T10:49:37;5.53;;;4.15;;
19778;SDS011;10049;59.306;18.090;2022-10-03T10:58:19;3.72;;;3.33;;
19778;SDS011;10049;59.306;18.090;2022-10-03T11:01:02;4.18;;;3.63;;
19778;SDS011;10049;59.306;18.090;2022-10-03T11:03:53;5.85;;;3.28;;
19778;SDS011;10049;59.306;18.090;2022-10-03T11:06:46;4.32;;;3.67;;
19778;SDS011;10049;59.306;18.090;2022-10-03T11:20:43;4.55;;;3.50;;
19778;SDS011;10049;59.306;18.090;2022-10-03T11:29:08;5.80;;;3.42;;
19778;SDS011;10049;59.306;18.090;2022-10-03T11:31:47;4.45;;;3.30;;
19778;SDS011;10049;59.306;18.090;2022-10-03T11:37:23;5.70;;;4.00;;
19778;SDS011;10049;59.306;18.090;2022-10-03T11:39:55;4.30;;;3.90;;
19778;SDS011;10049;59.306;18.090;2022-10-03T11:42:28;4.90;;;3.70;;
19778;SDS011;10049;59.306;18.090;2022-10-03T11:45:05;4.13;;;3.67;;
19778;SDS011;10049;59.306;18.090;2022-10-03T11:47:38;7.57;;;3.90;;
19778;SDS011;10049;59.306;18.090;2022-10-03T11:50:15;7.07;;;3.72;;
19778;SDS011;10049;59.306;18.090;2022-10-03T11:52:51;5.50;;;3.65;;
19778;SDS011;10049;59.306;18.090;2022-10-03T11:55:24;3.53;;;3.22;;
19778;SDS011;10049;59.306;18.090;2022-10-03T11:57:57;4.32;;;3.63;;
19778;SDS011;10049;59.306;18.090;2022-10-03T12:00:30;5.95;;;3.58;;
19778;SDS011;10049;59.306;18.090;2022-10-03T12:03:03;4.53;;;3.60;;
19778;SDS011;10049;59.306;18.090;2022-10-03T12:05:43;4.03;;;3.63;;
19778;SDS011;10049;59.306;18.090;2022-10-03T12:08:18;7.15;;;4.88;;
19778;SDS011;10049;59.306;18.090;2022-10-03T12:11:04;4.10;;;3.70;;
19778;SDS011;10049;59.306;18.090;2022-10-03T12:13:36;8.88;;;4.00;;
19778;SDS011;10049;59.306;18.090;2022-10-03T12:16:05;4.80;;;3.90;;
19778;SDS011;10049;59.306;18.090;2022-10-03T12:18:48;4.88;;;4.38;;
19778;SDS011;10049;59.306;18.090;2022-10-03T12:21:17;4.95;;;4.40;;
19778;SDS011;10049;59.306;18.090;2022-10-03T12:24:03;6.32;;;4.15;;
19778;SDS011;10049;59.306;18.090;2022-10-03T12:26:44;6.45;;;4.13;;
19778;SDS011;10049;59.306;18.090;2022-10-03T12:29:15;6.28;;;4.57;;
19778;SDS011;10049;59.306;18.090;2022-10-03T12:31:48;4.65;;;4.13;;
19778;SDS011;10049;59.306;18.090;2022-10-03T12:34:24;5.15;;;4.03;;
19778;SDS011;10049;59.306;18.090;2022-10-03T12:36:59;5.70;;;4.20;;
19778;SDS011;10049;59.306;18.090;2022-10-03T12:39:36;4.97;;;4.43;;
19778;SDS011;10049;59.306;18.090;2022-10-03T12:42:11;5.68;;;4.18;;
19778;SDS011;10049;59.306;18.090;2022-10-03T12:44:44;4.80;;;4.20;;
19778;SDS011;10049;59.306;18.090;2022-10-03T12:47:20;7.05;;;4.28;;
19778;SDS011;10049;59.306;18.090;2022-10-03T12:49:54;4.38;;;3.97;;
19778;SDS011;10049;59.306;18.090;2022-10-03T12:52:23;8.70;;;4.15;;
19778;SDS011;10049;59.306;18.090;2022-10-03T12:54:57;4.90;;;4.00;;
19778;SDS011;10049;59.306;18.090;2022-10-03T12:57:38;5.03;;;4.20;;
19778;SDS011;10049;59.306;18.090;2022-10-03T13:00:11;4.28;;;3.88;;
19778;SDS011;10049;59.306;18.090;2022-10-03T13:02:41;4.22;;;3.83;;
19778;SDS011;10049;59.306;18.090;2022-10-03T13:05:31;4.28;;;3.85;;
19778;SDS011;10049;59.306;18.090;2022-10-03T13:08:01;4.63;;;4.18;;
19778;SDS011;10049;59.306;18.090;2022-10-03T13:10:35;4.55;;;3.95;;
19778;SDS011;10049;59.306;18.090;2022-10-03T13:13:14;4.97;;;4.40;;
19778;SDS011;10049;59.306;18.090;2022-10-03T13:15:47;5.60;;;4.50;;
19778;SDS011;10049;59.306;18.090;2022-10-03T13:21:08;4.50;;;4.10;;
19778;SDS011;10049;59.306;18.090;2022-10-03T13:23:40;7.38;;;3.97;;
19778;SDS011;10049;59.306;18.090;2022-10-03T13:26:12;5.28;;;4.00;;
19778;SDS011;10049;59.306;18.090;2022-10-03T13:28:47;4.60;;;4.18;;
19778;SDS011;10049;59.306;18.090;2022-10-03T13:31:18;5.85;;;4.57;;
19778;SDS011;10049;59.306;18.090;2022-10-03T13:33:48;5.00;;;4.50;;
19778;SDS011;10049;59.306;18.090;2022-10-03T13:36:18;7.53;;;4.60;;
19778;SDS011;10049;59.306;18.090;2022-10-03T13:38:53;4.53;;;3.90;;
19778;SDS011;10049;59.306;18.090;2022-10-03T13:41:41;4.50;;;4.05;;
19778;SDS011;10049;59.306;18.090;2022-10-03T13:44:13;4.55;;;3.88;;
19778;SDS011;10049;59.306;18.090;2022-10-03T13:46:44;5.30;;;3.70;;
19778;SDS011;10049;59.306;18.090;2022-10-03T15:54:34;1.90;;;1.80;;
19778;SDS011;10049;59.306;18.090;2022-10-03T15:57:06;2.10;;;1.88;;
19778;SDS011;10049;59.306;18.090;2022-10-03T15:59:43;1.98;;;1.77;;
19778;SDS011;10049;59.306;18.090;2022-10-03T16:02:14;1.83;;;1.73;;
19778;SDS011;10049;59.306;18.090;2022-10-03T16:04:58;1.80;;;1.70;;
19778;SDS011;10049;59.306;18.090;2022-10-03T16:07:34;2.20;;;2.00;;
19778;SDS011;10049;59.306;18.090;2022-10-03T16:10:22;2.30;;;2.10;;
19778;SDS011;10049;59.306;18.090;2022-10-03T16:21:43;3.03;;;2.10;;
19778;SDS011;10049;59.306;18.090;2022-10-03T16:24:16;4.13;;;2.28;;
19778;SDS011;10049;59.306;18.090;2022-10-03T16:26:49;2.65;;;2.30;;
19778;SDS011;10049;59.306;18.090;2022-10-03T16:29:18;2.80;;;2.25;;
19778;SDS011;10049;59.306;18.090;2022-10-03T16:31:48;2.40;;;2.20;;
19778;SDS011;10049;59.306;18.090;2022-10-03T16:34:19;2.65;;;2.45;;
19778;SDS011;10049;59.306;18.090;2022-10-03T16:36:49;2.42;;;2.22;;
19778;SDS011;10049;59.306;18.090;2022-10-03T16:39:18;2.83;;;2.10;;
19778;SDS011;10049;59.306;18.090;2022-10-03T16:41:51;3.38;;;2.42;;
19778;SDS011;10049;59.306;18.090;2022-10-03T16:44:22;2.45;;;2.25;;
19778;SDS011;10049;59.306;18.090;2022-10-03T16:46:51;4.63;;;2.20;;
19778;SDS011;10049;59.306;18.090;2022-10-03T16:49:28;2.85;;;2.17;;
19778;SDS011;10049;59.306;18.090;2022-10-03T16:52:13;3.17;;;2.40;;
19778;SDS011;10049;59.306;18.090;2022-10-03T16:54:42;4.90;;;2.20;;
19778;SDS011;10049;59.306;18.090;2022-10-03T16:57:13;2.92;;;2.20;;
19778;SDS011;10049;59.306;18.090;2022-10-03T16:59:41;2.60;;;2.13;;
19778;SDS011;10049;59.306;18.090;2022-10-03T17:02:13;2.72;;;2.13;;
19778;SDS011;10049;59.306;18.090;2022-10-03T17:04:42;2.58;;;2.10;;
19778;SDS011;10049;59.306;18.090;2022-10-03T17:07:12;3.38;;;2.50;;
19778;SDS011;10049;59.306;18.090;2022-10-03T17:09:41;2.65;;;2.30;;
19778;SDS011;10049;59.306;18.090;2022-10-03T17:12:14;2.53;;;2.10;;
19778;SDS011;10049;59.306;18.090;2022-10-03T17:14:42;3.17;;;2.50;;
19778;SDS011;10049;59.306;18.090;2022-10-03T17:17:16;2.42;;;2.22;;
19778;SDS011;10049;59.306;18.090;2022-10-03T17:19:48;2.65;;;2.30;;
19778;SDS011;10049;59.306;18.090;2022-10-03T17:22:17;3.15;;;2.20;;
19778;SDS011;10049;59.306;18.090;2022-10-03T17:24:47;2.33;;;2.13;;
19778;SDS011;10049;59.306;18.090;2022-10-03T17:27:30;3.92;;;2.38;;
19778;SDS011;10049;59.306;18.090;2022-10-03T17:30:03;2.40;;;2.20;;
19778;SDS011;10049;59.306;18.090;2022-10-03T17:32:33;2.28;;;2.08;;
19778;SDS011;10049;59.306;18.090;2022-10-03T17:35:02;2.60;;;2.40;;
19778;SDS011;10049;59.306;18.090;2022-10-03T17:40:20;2.50;;;2.30;;
19778;SDS011;10049;59.306;18.090;2022-10-03T17:42:52;2.97;;;2.30;;
19778;SDS011;10049;59.306;18.090;2022-10-03T17:45:24;4.00;;;2.50;;
19778;SDS011;10049;59.306;18.090;2022-10-03T17:47:57;2.60;;;2.40;;
19778;SDS011;10049;59.306;18.090;2022-10-03T17:50:27;4.43;;;2.50;;
19778;SDS011;10049;59.306;18.090;2022-10-03T17:52:55;3.70;;;2.55;;
19778;SDS011;10049;59.306;18.090;2022-10-03T17:55:25;3.20;;;2.70;;
19778;SDS011;10049;59.306;18.090;2022-10-03T17:57:55;2.40;;;2.20;;
19778;SDS011;10049;59.306;18.090;2022-10-03T18:00:25;2.58;;;2.38;;
19778;SDS011;10049;59.306;18.090;2022-10-03T18:02:55;2.85;;;2.58;;
19778;SDS011;10049;59.306;18.090;2022-10-03T18:05:24;3.22;;;2.33;;
19778;SDS011;10049;59.306;18.090;2022-10-03T18:07:53;3.00;;;2.55;;
19778;SDS011;10049;59.306;18.090;2022-10-03T18:10:23;3.17;;;2.60;;
19778;SDS011;10049;59.306;18.090;2022-10-03T18:12:53;2.85;;;2.53;;
19778;SDS011;10049;59.306;18.090;2022-10-03T18:15:25;3.10;;;2.60;;
19778;SDS011;10049;59.306;18.090;2022-10-03T18:18:06;2.80;;;2.53;;
19778;SDS011;10049;59.306;18.090;2022-10-03T18:20:43;5.13;;;2.75;;
19778;SDS011;10049;59.306;18.090;2022-10-03T18:23:17;3.58;;;2.50;;
19778;SDS011;10049;59.306;18.090;2022-10-03T18:25:50;4.45;;;2.50;;
19778;SDS011;10049;59.306;18.090;2022-10-03T18:28:26;2.90;;;2.60;;
19778;SDS011;10049;59.306;18.090;2022-10-03T18:30:57;3.58;;;2.55;;
19778;SDS011;10049;59.306;18.090;2022-10-03T18:33:27;3.15;;;2.63;;
19778;SDS011;10049;59.306;18.090;2022-10-03T18:35:57;3.17;;;2.63;;
19778;SDS011;10049;59.306;18.090;2022-10-03T18:38:27;3.08;;;2.78;;
19778;SDS011;10049;59.306;18.090;2022-10-03T18:40:56;3.35;;;2.63;;
19778;SDS011;10049;59.306;18.090;2022-10-03T18:43:26;2.85;;;2.55;;
19778;SDS011;10049;59.306;18.090;2022-10-03T18:45:56;2.60;;;2.33;;
19778;SDS011;10049;59.306;18.090;2022-10-03T18:48:28;6.68;;;2.55;;
19778;SDS011;10049;59.306;18.090;2022-10-03T18:50:57;2.30;;;2.10;;
19778;SDS011;10049;59.306;18.090;2022-10-03T18:53:30;2.92;;;2.33;;
19778;SDS011;10049;59.306;18.090;2022-10-03T18:56:00;3.13;;;2.22;;
19778;SDS011;10049;59.306;18.090;2022-10-03T18:58:29;2.25;;;2.05;;
19778;SDS011;10049;59.306;18.090;2022-10-03T19:01:00;2.30;;;2.08;;
19778;SDS011;10049;59.306;18.090;2022-10-03T19:03:30;2.30;;;2.10;;
19778;SDS011;10049;59.306;18.090;2022-10-03T19:06:02;3.80;;;1.85;;
19778;SDS011;10049;59.306;18.090;2022-10-03T19:08:33;2.40;;;2.20;;
19778;SDS011;10049;59.306;18.090;2022-10-03T19:11:07;2.20;;;2.00;;
19778;SDS011;10049;59.306;18.090;2022-10-03T19:13:37;2.30;;;2.10;;
19778;SDS011;10049;59.306;18.090;2022-10-03T19:16:13;2.90;;;2.28;;
19778;SDS011;10049;59.306;18.090;2022-10-03T19:18:45;2.42;;;2.10;;
19778;SDS011;10049;59.306;18.090;2022-10-03T19:21:17;2.25;;;2.05;;
19778;SDS011;10049;59.306;18.090;2022-10-03T19:23:48;2.20;;;2.00;;
19778;SDS011;10049;59.306;18.090;2022-10-03T19:26:21;2.50;;;2.30;;
19778;SDS011;10049;59.306;18.090;2022-10-03T19:28:50;4.75;;;2.05;;
19778;SDS011;10049;59.306;18.090;2022-10-03T19:31:19;2.30;;;2.08;;
19778;SDS011;10049;59.306;18.090;2022-10-03T19:33:50;5.43;;;2.33;;
19778;SDS011;10049;59.306;18.090;2022-10-03T19:36:19;2.10;;;1.80;;
19778;SDS011;10049;59.306;18.090;2022-10-03T19:38:47;2.00;;;1.80;;
19778;SDS011;10049;59.306;18.090;2022-10-03T19:41:20;3.10;;;2.08;;
19778;SDS011;10049;59.306;18.090;2022-10-03T19:43:49;2.67;;;2.20;;
19778;SDS011;10049;59.306;18.090;2022-10-03T19:46:18;2.25;;;2.05;;
19778;SDS011;10049;59.306;18.090;2022-10-03T19:48:54;3.28;;;2.00;;
19778;SDS011;10049;59.306;18.090;2022-10-03T19:51:23;2.20;;;1.80;;
19778;SDS011;10049;59.306;18.090;2022-10-03T19:53:53;3.00;;;2.05;;
19778;SDS011;10049;59.306;18.090;2022-10-03T19:56:23;2.60;;;2.05;;
19778;SDS011;10049;59.306;18.090;2022-10-03T19:58:56;2.05;;;1.85;;
19778;SDS011;10049;59.306;18.090;2022-10-03T20:01:25;2.00;;;1.80;;
19778;SDS011;10049;59.306;18.090;2022-10-03T20:03:55;2.75;;;1.80;;
19778;SDS011;10049;59.306;18.090;2022-10-03T20:06:23;2.42;;;2.00;;
19778;SDS011;10049;59.306;18.090;2022-10-03T20:08:52;2.15;;;1.95;;
19778;SDS011;10049;59.306;18.090;2022-10-03T20:11:23;1.70;;;1.60;;
19778;SDS011;10049;59.306;18.090;2022-10-03T20:13:52;1.90;;;1.80;;
19778;SDS011;10049;59.306;18.090;2022-10-03T20:16:20;2.08;;;1.88;;
19778;SDS011;10049;59.306;18.090;2022-10-03T20:18:49;2.35;;;1.80;;
19778;SDS011;10049;59.306;18.090;2022-10-03T20:21:19;2.63;;;2.10;;
19778;SDS011;10049;59.306;18.090;2022-10-03T20:23:48;2.45;;;2.10;;
19778;SDS011;10049;59.306;18.090;2022-10-03T20:26:19;2.50;;;1.98;;
19778;SDS011;10049;59.306;18.090;2022-10-03T20:28:52;5.00;;;2.10;;
19778;SDS011;10049;59.306;18.090;2022-10-03T20:31:24;2.88;;;2.35;;
19778;SDS011;10049;59.306;18.090;2022-10-03T20:33:53;2.00;;;1.90;;
19778;SDS011;10049;59.306;18.090;2022-10-03T20:36:24;1.95;;;1.80;;
19778;SDS011;10049;59.306;18.090;2022-10-03T20:38:57;2.85;;;1.92;;
19778;SDS011;10049;59.306;18.090;2022-10-03T20:41:29;2.90;;;1.70;;
19778;SDS011;10049;59.306;18.090;2022-10-03T20:43:59;3.00;;;2.10;;
19778;SDS011;10049;59.306;18.090;2022-10-03T20:46:32;2.25;;;1.90;;
19778;SDS011;10049;59.306;18.090;2022-10-03T20:49:08;4.60;;;1.80;;
19778;SDS011;10049;59.306;18.090;2022-10-03T20:51:40;3.65;;;1.77;;
19778;SDS011;10049;59.306;18.090;2022-10-03T20:54:15;1.80;;;1.70;;
19778;SDS011;10049;59.306;18.090;2022-10-03T20:56:54;2.30;;;1.73;;
19778;SDS011;10049;59.306;18.090;2022-10-03T20:59:27;1.73;;;1.63;;